createdAt,value
2017-10-13T00:00:51.635Z,12.70
2017-10-13T00:03:19.911Z,12.70
2017-10-13T00:05:48.200Z,12.70
2017-10-13T00:08:15.707Z,12.70
2017-10-13T00:10:43.324Z,12.70
2017-10-13T00:13:10.827Z,12.70
2017-10-13T00:15:38.327Z,12.70
2017-10-13T00:18:06.935Z,12.60
2017-10-13T00:20:34.437Z,12.60
2017-10-13T00:23:01.956Z,12.60
2017-10-13T00:25:29.495Z,12.50
2017-10-13T00:27:57.011Z,12.50
2017-10-13T00:30:24.516Z,12.50
2017-10-13T00:32:52.035Z,12.50
2017-10-13T00:35:19.685Z,12.50
2017-10-13T00:37:47.203Z,12.40
2017-10-13T00:40:14.707Z,12.30
2017-10-13T00:42:42.228Z,12.30
2017-10-13T00:45:09.730Z,12.40
2017-10-13T00:47:38.015Z,12.40
2017-10-13T00:50:06.296Z,12.40
2017-10-13T00:52:34.588Z,12.30
2017-10-13T00:55:02.095Z,12.30
2017-10-13T00:57:29.618Z,12.30
2017-10-13T00:59:57.163Z,12.20
2017-10-13T01:02:24.684Z,12.20
2017-10-13T01:04:52.192Z,12.20
2017-10-13T01:07:19.739Z,12.20
2017-10-13T01:09:47.234Z,12.20
2017-10-13T01:12:14.746Z,12.20
2017-10-13T01:14:43.011Z,12.20
2017-10-13T01:17:11.312Z,12.20
2017-10-13T01:19:38.811Z,12.20
2017-10-13T01:22:06.315Z,12.10
2017-10-13T01:24:33.834Z,12.10
2017-10-13T01:27:01.340Z,12.10
2017-10-13T01:29:28.863Z,12.10
2017-10-13T01:31:56.450Z,12.10
2017-10-13T01:34:24.015Z,12.10
2017-10-13T01:36:51.519Z,12.10
2017-10-13T01:39:19.038Z,12.10
2017-10-13T01:41:46.543Z,12.00
2017-10-13T01:44:14.064Z,12.00
2017-10-13T01:46:41.563Z,12.00
2017-10-13T01:49:10.589Z,12.00
2017-10-13T01:51:38.854Z,12.00
2017-10-13T01:54:07.149Z,12.00
2017-10-13T01:56:34.651Z,12.00
2017-10-13T01:59:02.279Z,11.90
2017-10-13T02:01:29.783Z,11.90
2017-10-13T02:03:57.414Z,11.90
2017-10-13T02:06:24.937Z,11.90
2017-10-13T02:08:53.076Z,12.00
2017-10-13T02:11:20.583Z,12.10
2017-10-13T02:13:48.099Z,12.20
2017-10-13T02:16:15.607Z,12.30
2017-10-13T02:18:43.127Z,12.30
2017-10-13T02:21:11.396Z,12.20
2017-10-13T02:23:39.687Z,12.20
2017-10-13T02:26:07.200Z,12.20
2017-10-13T02:28:34.724Z,12.10
2017-10-13T02:31:02.237Z,12.10
2017-10-13T02:33:29.775Z,12.10
2017-10-13T02:35:57.280Z,12.00
2017-10-13T02:38:24.783Z,12.00
2017-10-13T02:40:52.304Z,12.00
2017-10-13T02:43:19.863Z,12.00
2017-10-13T02:45:47.382Z,12.00
2017-10-13T02:48:14.884Z,12.00
2017-10-13T02:50:42.410Z,12.10
2017-10-13T02:53:10.683Z,11.80
2017-10-13T02:55:38.422Z,11.80
2017-10-13T02:58:05.927Z,11.90
2017-10-13T03:00:33.740Z,11.90
2017-10-13T03:03:01.255Z,11.80
2017-10-13T03:05:28.767Z,11.80
2017-10-13T03:07:56.683Z,11.70
2017-10-13T03:10:24.206Z,11.70
2017-10-13T03:12:51.707Z,11.60
2017-10-13T03:15:19.224Z,11.50
2017-10-13T03:17:47.505Z,11.60
2017-10-13T03:20:15.796Z,11.60
2017-10-13T03:22:43.304Z,11.60
2017-10-13T03:25:10.823Z,11.60
2017-10-13T03:27:38.322Z,11.60
2017-10-13T03:30:05.839Z,11.50
2017-10-13T03:32:33.394Z,11.50
2017-10-13T03:35:01.691Z,11.50
2017-10-13T03:37:29.200Z,11.50
2017-10-13T03:39:57.512Z,11.60
2017-10-13T03:42:25.010Z,11.60
2017-10-13T03:44:52.528Z,11.60
2017-10-13T03:47:20.087Z,11.50
2017-10-13T03:49:47.643Z,11.50
2017-10-13T03:52:15.147Z,11.40
2017-10-13T03:54:42.687Z,11.50
2017-10-13T03:57:10.186Z,11.50
2017-10-13T03:59:37.777Z,11.50
2017-10-13T04:02:05.299Z,11.50
2017-10-13T04:04:32.891Z,11.60
2017-10-13T04:07:00.456Z,11.60
2017-10-13T04:09:28.012Z,11.60
2017-10-13T04:11:55.535Z,11.70
2017-10-13T04:14:23.035Z,11.70
2017-10-13T04:16:50.560Z,11.70
2017-10-13T04:19:18.864Z,11.60
2017-10-13T04:21:46.384Z,11.60
2017-10-13T04:24:13.892Z,11.60
2017-10-13T04:26:41.410Z,11.70
2017-10-13T04:29:09.695Z,11.70
2017-10-13T04:31:37.979Z,11.70
2017-10-13T04:34:05.479Z,11.70
2017-10-13T04:36:33.013Z,11.70
2017-10-13T04:39:00.971Z,11.70
2017-10-13T04:41:28.527Z,11.70
2017-10-13T04:43:56.026Z,11.70
2017-10-13T04:46:23.547Z,11.60
2017-10-13T04:48:51.105Z,11.60
2017-10-13T04:51:18.630Z,11.70
2017-10-13T04:53:46.135Z,11.70
2017-10-13T04:56:13.671Z,11.70
2017-10-13T04:58:41.179Z,11.70
2017-10-13T05:01:08.697Z,11.80
2017-10-13T05:03:36.268Z,11.70
2017-10-13T05:06:03.771Z,11.70
2017-10-13T05:08:32.061Z,11.60
2017-10-13T05:11:00.331Z,11.70
2017-10-13T05:13:27.850Z,11.70
2017-10-13T05:15:55.356Z,11.70
2017-10-13T05:18:23.648Z,11.80
2017-10-13T05:20:51.146Z,11.80
2017-10-13T05:23:18.663Z,11.80
2017-10-13T05:25:46.933Z,11.70
2017-10-13T05:28:15.210Z,11.70
2017-10-13T05:30:43.487Z,11.70
2017-10-13T05:33:11.781Z,11.80
2017-10-13T05:35:39.330Z,11.80
2017-10-13T05:38:06.863Z,11.80
2017-10-13T05:40:35.135Z,11.90
2017-10-13T05:43:02.655Z,11.80
2017-10-13T05:45:30.160Z,11.80
2017-10-13T05:47:58.472Z,11.60
2017-10-13T05:50:25.975Z,11.50
2017-10-13T05:52:53.492Z,11.50
2017-10-13T05:55:21.031Z,11.50
2017-10-13T05:57:48.534Z,11.60
2017-10-13T06:00:16.055Z,11.60
2017-10-13T06:02:43.559Z,11.70
2017-10-13T06:05:11.167Z,11.80
2017-10-13T06:07:38.670Z,11.70
2017-10-13T06:10:06.183Z,11.80
2017-10-13T06:12:33.691Z,11.90
2017-10-13T06:15:01.207Z,11.90
2017-10-13T06:17:28.711Z,12.00
2017-10-13T06:19:56.231Z,12.00
2017-10-13T06:22:23.730Z,12.00
2017-10-13T06:24:51.253Z,12.00
2017-10-13T06:27:18.760Z,12.10
2017-10-13T06:29:47.051Z,12.10
2017-10-13T06:32:15.324Z,12.20
2017-10-13T06:34:43.722Z,12.20
2017-10-13T06:37:11.228Z,12.20
2017-10-13T06:39:38.751Z,12.30
2017-10-13T06:42:06.622Z,12.30
2017-10-13T06:44:34.139Z,12.40
2017-10-13T06:47:02.412Z,12.50
2017-10-13T06:49:30.718Z,12.60
2017-10-13T06:51:58.223Z,12.50
2017-10-13T06:54:25.728Z,12.60
2017-10-13T06:56:53.251Z,12.70
2017-10-13T06:59:20.755Z,12.70
2017-10-13T07:01:48.280Z,12.80
2017-10-13T07:04:16.543Z,13.00
2017-10-13T07:06:44.061Z,12.90
2017-10-13T07:09:11.558Z,13.00
2017-10-13T07:11:39.090Z,13.10
2017-10-13T07:14:06.599Z,13.10
2017-10-13T07:16:40.123Z,13.20
2017-10-13T07:19:07.623Z,13.20
2017-10-13T07:21:35.144Z,13.30
2017-10-13T07:24:06.570Z,13.40
2017-10-13T07:26:34.167Z,13.40
2017-10-13T07:29:01.687Z,13.40
2017-10-13T07:31:29.223Z,13.50
2017-10-13T07:33:57.535Z,13.60
2017-10-13T07:36:25.056Z,13.60
2017-10-13T07:38:53.355Z,13.70
2017-10-13T07:41:20.915Z,13.70
2017-10-13T07:43:48.431Z,13.70
2017-10-13T07:46:16.031Z,13.80
2017-10-13T07:48:43.551Z,13.80
2017-10-13T07:51:11.056Z,13.80
2017-10-13T07:53:38.575Z,13.90
2017-10-13T07:56:06.163Z,13.90
2017-10-13T07:58:33.678Z,14.00
2017-10-13T08:01:01.183Z,14.00
2017-10-13T08:03:28.702Z,14.10
2017-10-13T08:05:56.204Z,14.10
2017-10-13T08:08:23.755Z,14.20
2017-10-13T08:10:51.267Z,14.30
2017-10-13T08:13:18.787Z,14.40
2017-10-13T08:15:46.291Z,14.40
2017-10-13T08:18:13.810Z,14.50
2017-10-13T08:20:41.579Z,14.60
2017-10-13T08:23:09.107Z,14.60
2017-10-13T08:25:36.623Z,14.70
2017-10-13T08:28:04.139Z,14.80
2017-10-13T08:30:31.639Z,14.90
2017-10-13T08:32:59.179Z,14.90
2017-10-13T08:35:26.678Z,15.00
2017-10-13T08:37:55.356Z,15.20
2017-10-13T08:40:22.947Z,15.20
2017-10-13T08:42:50.453Z,15.30
2017-10-13T08:45:17.966Z,15.30
2017-10-13T08:47:45.467Z,15.40
2017-10-13T08:50:12.978Z,15.50
2017-10-13T08:52:40.535Z,15.50
2017-10-13T08:55:08.048Z,15.60
2017-10-13T08:57:35.547Z,15.60
2017-10-13T09:00:03.062Z,15.70
2017-10-13T09:02:30.562Z,15.80
2017-10-13T09:04:58.081Z,15.80
2017-10-13T09:07:25.583Z,15.80
2017-10-13T09:09:53.103Z,15.90
2017-10-13T09:12:20.612Z,15.90
2017-10-13T09:14:48.126Z,15.90
2017-10-13T09:17:16.395Z,16.00
2017-10-13T09:19:43.916Z,16.00
2017-10-13T09:22:11.430Z,16.10
2017-10-13T09:24:39.714Z,16.10
2017-10-13T09:27:07.974Z,16.10
2017-10-13T09:29:36.260Z,16.10
2017-10-13T09:32:04.526Z,16.20
2017-10-13T09:34:33.278Z,16.30
2017-10-13T09:37:00.795Z,16.20
2017-10-13T09:39:28.310Z,16.30
2017-10-13T09:41:55.818Z,16.30
2017-10-13T09:44:23.338Z,16.30
2017-10-13T09:46:51.643Z,16.40
2017-10-13T09:49:19.204Z,16.30
2017-10-13T09:51:46.758Z,16.30
2017-10-13T09:54:14.274Z,16.20
2017-10-13T09:56:42.401Z,16.20
2017-10-13T09:59:10.150Z,16.20
2017-10-13T10:01:37.650Z,16.10
2017-10-13T10:04:05.172Z,16.20
2017-10-13T10:06:32.679Z,16.10
2017-10-13T10:09:00.175Z,16.10
2017-10-13T10:11:28.454Z,16.10
2017-10-13T10:13:56.723Z,16.20
2017-10-13T10:16:25.007Z,16.20
2017-10-13T10:18:52.566Z,16.20
2017-10-13T10:21:20.135Z,16.20
2017-10-13T10:23:47.639Z,16.30
2017-10-13T10:26:15.162Z,16.30
2017-10-13T10:28:42.664Z,16.40
2017-10-13T10:31:10.186Z,16.40
2017-10-13T10:33:37.686Z,16.50
2017-10-13T10:36:05.199Z,16.50
2017-10-13T10:38:32.698Z,16.50
2017-10-13T10:41:00.304Z,16.60
2017-10-13T10:43:27.802Z,16.60
2017-10-13T10:45:55.324Z,16.60
2017-10-13T10:48:22.824Z,16.80
2017-10-13T10:50:50.347Z,16.90
2017-10-13T10:53:17.851Z,17.00
2017-10-13T10:55:46.130Z,17.00
2017-10-13T10:58:13.627Z,17.00
2017-10-13T11:00:41.148Z,17.10
2017-10-13T11:03:08.647Z,17.20
2017-10-13T11:05:36.159Z,17.20
2017-10-13T11:08:03.671Z,17.30
2017-10-13T11:10:31.198Z,17.40
2017-10-13T11:12:59.463Z,17.60
2017-10-13T11:15:27.750Z,17.80
2017-10-13T11:17:56.050Z,17.90
2017-10-13T11:20:23.595Z,17.90
2017-10-13T11:22:51.099Z,18.10
2017-10-13T11:25:18.610Z,18.20
2017-10-13T11:27:46.431Z,18.30
2017-10-13T11:30:13.960Z,18.30
2017-10-13T11:32:41.454Z,18.40
2017-10-13T11:35:09.055Z,18.50
2017-10-13T11:37:36.558Z,18.60
2017-10-13T11:40:04.067Z,18.70
2017-10-13T11:42:31.581Z,18.90
2017-10-13T11:44:59.074Z,19.00
2017-10-13T11:47:27.355Z,19.10
2017-10-13T11:49:58.810Z,19.10
2017-10-13T11:52:26.327Z,19.00
2017-10-13T11:54:53.838Z,18.90
2017-10-13T11:57:21.495Z,18.80
2017-10-13T11:59:48.994Z,18.80
2017-10-13T12:02:16.702Z,18.80
2017-10-13T12:04:44.198Z,18.70
2017-10-13T12:07:11.711Z,18.70
2017-10-13T12:09:39.974Z,18.80
2017-10-13T12:12:08.260Z,18.70
2017-10-13T12:14:36.531Z,18.70
2017-10-13T12:17:04.814Z,18.70
2017-10-13T12:19:33.083Z,18.70
2017-10-13T12:22:01.372Z,18.70
2017-10-13T12:24:28.885Z,18.70
2017-10-13T12:26:56.399Z,18.70
2017-10-13T12:29:23.902Z,18.80
2017-10-13T12:31:51.415Z,18.80
2017-10-13T12:34:18.916Z,18.90
2017-10-13T12:36:46.528Z,18.90
2017-10-13T12:39:14.043Z,18.90
2017-10-13T12:41:41.653Z,18.90
2017-10-13T12:44:09.171Z,18.90
2017-10-13T12:46:36.668Z,18.90
2017-10-13T12:49:04.183Z,18.80
2017-10-13T12:51:31.696Z,18.80
2017-10-13T12:53:59.218Z,18.80
2017-10-13T12:56:27.482Z,18.90
2017-10-13T12:58:55.762Z,19.00
2017-10-13T13:01:24.059Z,19.00
2017-10-13T13:03:51.575Z,19.00
2017-10-13T13:06:19.180Z,19.10
2017-10-13T13:08:46.724Z,19.10
2017-10-13T13:11:14.991Z,19.20
2017-10-13T13:13:43.275Z,19.20
2017-10-13T13:16:11.894Z,19.30
2017-10-13T13:18:39.427Z,19.20
2017-10-13T13:21:06.930Z,19.20
2017-10-13T13:23:34.543Z,19.30
2017-10-13T13:26:02.044Z,19.20
2017-10-13T13:28:29.567Z,19.20
2017-10-13T13:30:57.063Z,19.20
2017-10-13T13:33:24.582Z,19.30
2017-10-13T13:35:52.078Z,19.20
2017-10-13T13:38:19.872Z,19.20
2017-10-13T13:40:47.454Z,19.20
2017-10-13T13:43:15.019Z,19.20
2017-10-13T13:45:42.578Z,19.20
2017-10-13T13:48:10.095Z,19.30
2017-10-13T13:50:37.603Z,19.30
2017-10-13T13:53:05.155Z,19.30
2017-10-13T13:55:32.651Z,19.30
2017-10-13T13:58:00.147Z,19.30
2017-10-13T14:00:28.430Z,19.30
2017-10-13T14:02:56.699Z,19.30
2017-10-13T14:05:24.986Z,19.30
2017-10-13T14:07:53.246Z,19.40
2017-10-13T14:10:21.535Z,19.40
2017-10-13T14:12:49.835Z,19.50
2017-10-13T14:15:17.348Z,19.50
2017-10-13T14:17:44.947Z,19.50
2017-10-13T14:20:12.462Z,19.50
2017-10-13T14:22:39.958Z,19.60
2017-10-13T14:25:07.474Z,19.60
2017-10-13T14:27:34.983Z,19.60
2017-10-13T14:30:02.499Z,19.60
2017-10-13T14:32:30.003Z,19.60
2017-10-13T14:34:57.543Z,19.70
2017-10-13T14:37:25.039Z,19.70
2017-10-13T14:39:52.539Z,19.80
2017-10-13T14:42:20.826Z,20.10
2017-10-13T14:44:49.095Z,20.00
2017-10-13T14:47:17.382Z,19.80
2017-10-13T14:49:45.651Z,19.80
2017-10-13T14:52:13.935Z,19.70
2017-10-13T14:54:42.195Z,19.60
2017-10-13T14:57:10.491Z,19.60
2017-10-13T14:59:37.994Z,19.50
2017-10-13T15:02:05.516Z,19.50
2017-10-13T15:04:33.066Z,19.40
2017-10-13T15:07:00.630Z,19.40
2017-10-13T15:09:28.130Z,19.40
2017-10-13T15:11:55.748Z,19.40
2017-10-13T15:14:23.255Z,19.30
2017-10-13T15:16:50.771Z,19.30
2017-10-13T15:19:18.320Z,19.30
2017-10-13T15:21:45.835Z,19.30
2017-10-13T15:24:13.349Z,19.30
2017-10-13T15:26:40.895Z,19.30
2017-10-13T15:29:14.111Z,19.30
2017-10-13T15:31:47.450Z,19.30
2017-10-13T15:34:20.859Z,19.30
2017-10-13T15:36:49.200Z,19.30
2017-10-13T15:52:46.555Z,19.20
2017-10-13T15:55:14.065Z,19.20
2017-10-13T15:57:41.710Z,19.10
2017-10-13T16:00:09.226Z,19.10
2017-10-13T16:02:36.744Z,19.00
2017-10-13T16:05:04.247Z,19.00
2017-10-13T16:07:31.763Z,19.00
2017-10-13T16:09:59.303Z,18.90
2017-10-13T16:12:26.864Z,18.90
2017-10-13T16:14:54.363Z,18.80
2017-10-13T16:17:21.880Z,18.70
2017-10-13T16:19:49.378Z,18.60
2017-10-13T16:22:16.904Z,18.50
2017-10-13T16:24:44.454Z,18.50
2017-10-13T16:27:11.970Z,18.30
2017-10-13T16:29:39.480Z,18.20
2017-10-13T16:32:06.994Z,18.20
2017-10-13T16:34:35.263Z,18.00
2017-10-13T16:37:02.782Z,18.00
2017-10-13T16:39:30.288Z,17.90
2017-10-13T16:41:58.605Z,17.80
2017-10-13T16:44:26.121Z,17.80
2017-10-13T16:46:53.624Z,17.50
2017-10-13T16:49:21.142Z,17.40
2017-10-13T16:51:49.415Z,17.30
2017-10-13T16:54:18.379Z,17.20
2017-10-13T16:56:45.874Z,17.20
2017-10-13T16:59:14.164Z,17.00
2017-10-13T17:01:41.726Z,17.00
2017-10-13T17:04:09.243Z,16.90
2017-10-13T17:06:36.748Z,16.90
2017-10-13T17:09:04.267Z,16.80
2017-10-13T17:11:31.861Z,16.70
2017-10-13T17:13:59.378Z,16.60
2017-10-13T17:16:28.388Z,16.40
2017-10-13T17:18:56.896Z,16.40
2017-10-13T17:21:24.462Z,16.40
2017-10-13T17:23:52.667Z,16.30
2017-10-13T17:26:20.198Z,16.30
2017-10-13T17:28:47.751Z,16.20
2017-10-13T17:31:15.258Z,16.10
2017-10-13T17:33:42.775Z,16.10
2017-10-13T17:36:10.271Z,16.00
2017-10-13T17:38:37.790Z,15.90
2017-10-13T17:41:05.336Z,15.90
2017-10-13T17:43:32.854Z,15.90
2017-10-13T17:46:00.451Z,15.80
2017-10-13T17:48:27.968Z,15.70
2017-10-13T17:50:55.472Z,15.70
2017-10-13T17:53:23.008Z,15.60
2017-10-13T17:55:51.275Z,15.50
2017-10-13T17:58:19.543Z,15.40
2017-10-13T18:00:47.856Z,15.40
2017-10-13T18:03:15.355Z,15.40
2017-10-13T18:05:42.875Z,15.40
2017-10-13T18:08:10.374Z,15.30
2017-10-13T18:10:37.886Z,15.30
2017-10-13T18:13:05.386Z,15.30
2017-10-13T18:15:32.902Z,15.10
2017-10-13T18:18:00.407Z,15.00
2017-10-13T18:20:27.928Z,15.00
2017-10-13T18:22:55.426Z,15.00
2017-10-13T18:25:22.941Z,14.90
2017-10-13T18:27:50.698Z,14.80
2017-10-13T18:30:18.390Z,14.80
2017-10-13T18:32:45.889Z,14.70
2017-10-13T18:35:14.185Z,14.70
2017-10-13T18:37:41.683Z,14.60
2017-10-13T18:40:09.290Z,14.60
2017-10-13T18:42:37.791Z,14.60
2017-10-13T18:45:06.070Z,14.60
2017-10-13T18:47:33.654Z,14.60
2017-10-13T18:50:01.175Z,14.50
2017-10-13T18:52:28.749Z,14.50
2017-10-13T18:54:56.247Z,14.50
2017-10-13T18:57:23.764Z,14.50
2017-10-13T18:59:51.271Z,14.50
2017-10-13T19:02:18.795Z,14.50
2017-10-13T19:04:46.291Z,14.50
2017-10-13T19:07:13.807Z,14.50
2017-10-13T19:09:41.306Z,14.50
2017-10-13T19:12:08.829Z,14.40
2017-10-13T19:14:36.331Z,14.30
2017-10-13T19:19:55.032Z,14.20
2017-10-13T19:22:23.351Z,14.10
2017-10-13T19:24:51.403Z,14.20
2017-10-13T19:27:18.927Z,14.10
2017-10-13T19:29:47.193Z,14.00
2017-10-13T19:32:15.479Z,14.00
2017-10-13T19:34:43.756Z,14.00
2017-10-13T19:37:12.043Z,14.00
2017-10-13T19:39:39.547Z,14.00
2017-10-13T19:42:07.072Z,13.90
2017-10-13T19:44:34.576Z,13.90
2017-10-13T19:47:02.177Z,14.00
2017-10-13T19:49:29.687Z,13.90
2017-10-13T19:51:57.211Z,13.90
2017-10-13T19:54:24.754Z,13.90
2017-10-13T19:56:52.322Z,13.70
2017-10-13T19:59:19.871Z,13.70
2017-10-13T20:01:47.378Z,13.80
2017-10-13T20:04:15.039Z,13.80
2017-10-13T20:06:42.548Z,13.80
2017-10-13T20:09:10.079Z,13.70
2017-10-13T20:11:38.347Z,13.80
2017-10-13T20:14:05.868Z,13.70
2017-10-13T20:16:33.367Z,13.70
2017-10-13T20:19:00.891Z,13.70
2017-10-13T20:21:28.400Z,13.70
2017-10-13T20:23:56.792Z,13.60
2017-10-13T20:26:24.304Z,13.60
2017-10-13T20:28:51.831Z,13.60
2017-10-13T20:31:19.415Z,13.60
2017-10-13T20:33:47.028Z,13.60
2017-10-13T20:36:14.686Z,13.60
2017-10-13T20:38:42.208Z,13.60
2017-10-13T20:41:09.753Z,13.60
2017-10-13T20:43:37.271Z,13.60
2017-10-13T20:46:04.775Z,13.60
2017-10-13T20:48:32.370Z,13.50
2017-10-13T20:51:00.651Z,13.50
2017-10-13T20:53:28.197Z,13.40
2017-10-13T20:55:56.469Z,13.40
2017-10-13T20:58:24.737Z,13.40
2017-10-13T21:00:52.297Z,13.40
2017-10-13T21:03:20.569Z,13.40
2017-10-13T21:05:48.103Z,13.40
2017-10-13T21:08:15.608Z,13.40
2017-10-13T21:10:43.123Z,13.40
2017-10-13T21:13:10.630Z,13.40
2017-10-13T21:15:38.191Z,13.40
2017-10-13T21:18:05.700Z,13.20
2017-10-13T21:20:33.232Z,13.20
2017-10-13T21:23:00.755Z,13.20
2017-10-13T21:25:29.042Z,13.10
2017-10-13T21:27:56.543Z,13.10
2017-10-13T21:30:24.063Z,13.10
2017-10-13T21:32:51.569Z,13.00
2017-10-13T21:35:19.179Z,13.10
2017-10-13T21:37:46.688Z,13.00
2017-10-13T21:40:14.220Z,13.00
2017-10-13T21:42:41.723Z,12.90
2017-10-13T21:45:10.015Z,13.00
2017-10-13T21:47:38.289Z,13.00
2017-10-13T21:50:06.584Z,13.00
2017-10-13T21:52:34.092Z,13.00
2017-10-13T21:55:02.019Z,13.00
2017-10-13T21:57:29.522Z,13.00
2017-10-13T21:59:57.052Z,13.00
2017-10-13T22:02:24.580Z,13.00
2017-10-13T22:04:57.720Z,13.00
2017-10-13T22:07:26.031Z,12.90
2017-10-13T22:09:55.196Z,12.80
2017-10-13T22:12:24.207Z,12.80
2017-10-13T22:14:52.480Z,12.80
2017-10-13T22:17:20.769Z,12.80
2017-10-13T22:19:49.037Z,12.80
2017-10-13T22:22:17.323Z,12.80
2017-10-13T22:24:45.621Z,12.80
2017-10-13T22:27:13.144Z,12.80
2017-10-13T22:29:41.464Z,12.70
2017-10-13T22:32:09.007Z,12.70
2017-10-13T22:34:36.516Z,12.70
2017-10-13T22:37:04.048Z,12.70
2017-10-13T22:39:31.547Z,12.60
2017-10-13T22:41:59.073Z,12.50
2017-10-13T22:44:26.575Z,12.50
2017-10-13T22:46:54.877Z,12.40
2017-10-13T22:49:22.384Z,12.40
2017-10-13T22:51:49.912Z,12.30
2017-10-13T22:54:17.414Z,12.30
2017-10-13T22:56:45.103Z,12.20
2017-10-13T22:59:12.669Z,12.20
2017-10-13T23:01:40.228Z,12.10
2017-10-13T23:04:07.735Z,12.10
2017-10-13T23:06:35.349Z,12.20
2017-10-13T23:09:02.850Z,12.20
2017-10-13T23:11:30.484Z,12.20
2017-10-13T23:13:57.993Z,12.20
2017-10-13T23:16:26.284Z,12.20
2017-10-13T23:18:53.791Z,12.20
2017-10-13T23:21:21.311Z,12.20
2017-10-13T23:23:48.816Z,12.10
2017-10-13T23:26:16.432Z,12.00
2017-10-13T23:28:43.992Z,12.00
2017-10-13T23:31:11.601Z,12.00
2017-10-13T23:33:39.118Z,12.00
2017-10-13T23:36:06.636Z,12.00
2017-10-13T23:38:34.135Z,12.10
2017-10-13T23:41:01.674Z,12.10
2017-10-13T23:43:29.179Z,12.10
2017-10-13T23:45:56.696Z,12.10
2017-10-13T23:48:24.254Z,12.10
2017-10-13T23:50:51.759Z,12.10
2017-10-13T23:53:19.280Z,12.10
2017-10-13T23:55:46.783Z,12.00
2017-10-13T23:58:14.307Z,12.00
